createdAt,value
2022-08-07T00:01:43.128Z,49.58
2022-08-07T00:04:03.479Z,49.98
2022-08-07T00:06:33.442Z,51.02
2022-08-07T00:09:16.667Z,49.82
2022-08-07T00:11:54.019Z,49.53
2022-08-07T00:14:29.861Z,49.63
2022-08-07T00:17:02.724Z,49.33
2022-08-07T00:19:57.452Z,49.70
2022-08-07T00:22:24.399Z,48.88
2022-08-07T00:25:11.032Z,49.02
2022-08-07T00:27:52.779Z,49.08
2022-08-07T00:30:28.220Z,51.20
2022-08-07T00:32:57.341Z,50.92
2022-08-07T00:35:25.501Z,49.96
2022-08-07T00:37:53.264Z,49.85
2022-08-07T00:40:36.994Z,50.85
2022-08-07T00:43:09.838Z,49.56
2022-08-07T00:45:53.954Z,50.41
2022-08-07T00:48:25.090Z,50.70
2022-08-07T00:50:59.801Z,50.46
2022-08-07T00:53:26.950Z,51.00
2022-08-07T00:56:07.488Z,50.62
2022-08-07T00:58:47.475Z,50.12
2022-08-07T01:01:18.256Z,50.18
2022-08-07T01:03:57.392Z,49.77
2022-08-07T01:06:29.104Z,50.88
2022-08-07T01:08:58.400Z,50.10
2022-08-07T01:12:23.279Z,50.06
2022-08-07T01:14:15.527Z,50.76
2022-08-07T01:16:47.311Z,50.73
2022-08-07T01:19:18.951Z,51.37
2022-08-07T01:21:53.269Z,52.13
2022-08-07T01:24:25.666Z,51.20
2022-08-07T01:26:54.100Z,50.13
2022-08-07T01:29:27.837Z,50.65
2022-08-07T01:31:59.716Z,51.45
2022-08-07T01:34:31.895Z,51.56
2022-08-07T01:37:03.094Z,51.88
2022-08-07T01:39:41.444Z,52.25
2022-08-07T01:42:39.455Z,51.20
2022-08-07T01:45:15.844Z,51.22
2022-08-07T01:48:19.182Z,51.79
2022-08-07T01:50:40.386Z,51.79
2022-08-07T01:53:11.740Z,51.23
2022-08-07T01:55:51.338Z,51.28
2022-08-07T01:58:29.250Z,51.57
2022-08-07T02:01:10.295Z,51.68
2022-08-07T02:03:57.215Z,51.22
2022-08-07T02:06:31.867Z,51.43
2022-08-07T02:09:05.936Z,51.32
2022-08-07T02:12:04.730Z,52.15
2022-08-07T02:14:36.632Z,51.53
2022-08-07T02:17:16.499Z,51.28
2022-08-07T02:20:07.204Z,52.00
2022-08-07T02:22:41.347Z,52.12
2022-08-07T02:25:18.098Z,52.10
2022-08-07T02:27:56.294Z,51.73
2022-08-07T02:30:24.367Z,51.37
2022-08-07T02:33:00.971Z,51.63
2022-08-07T02:36:29.409Z,50.95
2022-08-07T02:38:31.516Z,50.42
2022-08-07T02:41:04.109Z,50.06
2022-08-07T02:43:36.043Z,51.69
2022-08-07T02:46:07.318Z,51.26
2022-08-07T02:48:35.699Z,50.74
2022-08-07T02:51:29.033Z,51.48
2022-08-07T02:54:01.580Z,51.75
2022-08-07T02:56:31.620Z,50.66
2022-08-07T02:59:01.659Z,50.04
2022-08-07T03:01:36.354Z,50.09
2022-08-07T03:04:12.872Z,50.33
2022-08-07T03:06:44.734Z,50.80
2022-08-07T03:09:15.089Z,50.60
2022-08-07T03:12:05.671Z,50.48
2022-08-07T03:14:36.401Z,50.37
2022-08-07T03:17:04.936Z,49.89
2022-08-07T03:19:37.118Z,50.07
2022-08-07T03:22:07.063Z,50.45
2022-08-07T03:24:34.880Z,50.17
2022-08-07T03:27:06.195Z,50.18
2022-08-07T03:29:49.574Z,50.09
2022-08-07T03:32:23.335Z,50.27
2022-08-07T03:35:16.633Z,50.68
2022-08-07T03:37:53.133Z,50.53
2022-08-07T03:40:24.164Z,50.56
2022-08-07T03:43:00.668Z,50.65
2022-08-07T03:45:30.647Z,50.86
2022-08-07T03:48:03.799Z,50.70
2022-08-07T03:50:37.353Z,50.71
2022-08-07T03:53:04.910Z,51.14
2022-08-07T03:55:46.097Z,50.47
2022-08-07T03:59:07.309Z,50.62
2022-08-07T04:01:11.543Z,50.13
2022-08-07T04:03:53.205Z,50.09
2022-08-07T04:06:37.534Z,50.85
2022-08-07T04:09:08.407Z,50.71
2022-08-07T04:12:26.570Z,49.90
2022-08-07T04:14:37.450Z,50.04
2022-08-07T04:17:20.321Z,49.64
2022-08-07T04:19:51.995Z,49.98
2022-08-07T04:22:28.855Z,50.10
2022-08-07T04:25:01.139Z,49.97
2022-08-07T04:27:35.420Z,49.85
2022-08-07T04:30:21.011Z,49.76
2022-08-07T04:32:58.161Z,49.78
2022-08-07T04:35:26.685Z,50.06
2022-08-07T04:38:03.668Z,50.06
2022-08-07T04:40:34.895Z,49.98
2022-08-07T04:43:03.357Z,50.02
2022-08-07T04:46:01.033Z,49.88
2022-08-07T04:48:37.222Z,49.96
2022-08-07T04:51:21.039Z,50.30
2022-08-07T04:54:22.690Z,49.89
2022-08-07T04:58:23.765Z,49.67
2022-08-07T05:00:19.045Z,50.09
2022-08-07T05:03:59.714Z,49.88
2022-08-07T05:06:19.999Z,50.11
2022-08-07T05:09:00.553Z,50.02
2022-08-07T05:11:56.985Z,48.82
2022-08-07T05:14:58.187Z,48.69
2022-08-07T05:17:50.937Z,49.29
2022-08-07T05:20:24.952Z,48.95
2022-08-07T05:22:59.342Z,49.24
2022-08-07T05:25:54.415Z,49.13
2022-08-07T05:28:23.000Z,49.51
2022-08-07T05:30:53.178Z,49.79
2022-08-07T05:33:21.880Z,49.40
2022-08-07T05:35:52.828Z,49.27
2022-08-07T05:38:59.954Z,49.15
2022-08-07T05:41:13.979Z,48.85
2022-08-07T05:44:08.635Z,49.07
2022-08-07T05:46:31.337Z,49.99
2022-08-07T05:48:59.815Z,49.59
2022-08-07T05:51:33.424Z,49.31
2022-08-07T05:54:13.868Z,49.47
2022-08-07T05:56:56.049Z,50.35
2022-08-07T05:59:26.240Z,50.14
2022-08-07T06:02:00.068Z,49.89
2022-08-07T06:04:30.442Z,50.41
2022-08-07T06:07:03.661Z,50.52
2022-08-07T06:10:04.766Z,50.23
2022-08-07T06:12:31.763Z,49.43
2022-08-07T06:15:05.567Z,49.74
2022-08-07T06:17:37.737Z,49.72
2022-08-07T06:20:12.829Z,49.89
2022-08-07T06:23:02.271Z,50.73
2022-08-07T06:25:54.470Z,50.82
2022-08-07T06:28:27.528Z,50.24
2022-08-07T06:30:56.220Z,49.31
2022-08-07T06:33:26.275Z,50.17
2022-08-07T06:36:12.454Z,50.11
2022-08-07T06:38:58.470Z,50.39
2022-08-07T06:42:01.666Z,50.80
2022-08-07T06:44:51.613Z,50.44
2022-08-07T06:47:19.719Z,50.63
2022-08-07T06:49:51.049Z,51.47
2022-08-07T06:52:31.614Z,51.80
2022-08-07T06:55:32.993Z,51.43
2022-08-07T06:58:06.653Z,51.72
2022-08-07T07:00:44.481Z,51.89
2022-08-07T07:03:14.564Z,51.24
2022-08-07T07:06:03.485Z,50.66
2022-08-07T07:08:34.135Z,50.12
2022-08-07T07:11:13.154Z,50.92
2022-08-07T07:13:57.595Z,52.36
2022-08-07T07:16:30.911Z,52.79
2022-08-07T07:19:11.247Z,52.48
2022-08-07T07:22:11.738Z,53.97
2022-08-07T07:24:43.120Z,54.35
2022-08-07T07:27:35.263Z,53.97
2022-08-07T07:30:26.345Z,53.27
2022-08-07T07:33:04.899Z,53.71
2022-08-07T07:35:54.211Z,54.18
2022-08-07T07:38:25.405Z,54.07
2022-08-07T07:41:01.868Z,54.01
2022-08-07T07:44:14.445Z,53.84
2022-08-07T07:46:53.341Z,54.61
2022-08-07T07:50:29.831Z,54.32
2022-08-07T07:51:57.447Z,53.78
2022-08-07T07:54:28.023Z,54.39
2022-08-07T07:56:57.277Z,54.74
2022-08-07T07:59:27.188Z,54.50
2022-08-07T08:02:22.628Z,54.11
2022-08-07T08:05:04.345Z,54.36
2022-08-07T08:07:35.648Z,53.89
2022-08-07T08:10:10.546Z,53.96
2022-08-07T08:12:59.084Z,53.43
2022-08-07T08:15:58.019Z,53.19
2022-08-07T08:18:19.199Z,53.47
2022-08-07T08:20:47.968Z,53.34
2022-08-07T08:23:37.898Z,53.00
2022-08-07T08:26:25.153Z,53.06
2022-08-07T08:28:54.448Z,52.85
2022-08-07T08:31:59.163Z,52.91
2022-08-07T08:34:12.617Z,52.46
2022-08-07T08:36:56.299Z,51.72
2022-08-07T08:39:25.297Z,51.55
2022-08-07T08:42:18.232Z,50.25
2022-08-07T08:45:00.650Z,49.95
2022-08-07T08:47:52.231Z,50.01
2022-08-07T08:50:34.797Z,49.65
2022-08-07T08:53:22.557Z,49.06
2022-08-07T08:55:58.591Z,48.96
2022-08-07T08:58:47.723Z,48.00
2022-08-07T09:01:40.121Z,48.47
2022-08-07T09:04:31.542Z,48.35
2022-08-07T09:07:11.353Z,47.53
2022-08-07T09:09:57.205Z,48.07
2022-08-07T09:12:31.129Z,47.79
2022-08-07T09:16:22.441Z,47.45
2022-08-07T09:18:42.498Z,46.82
2022-08-07T09:21:33.838Z,46.88
2022-08-07T09:24:58.921Z,46.81
2022-08-07T09:27:59.812Z,46.57
2022-08-07T09:30:51.711Z,46.14
2022-08-07T09:33:57.514Z,46.08
2022-08-07T09:36:35.832Z,45.74
2022-08-07T09:39:52.927Z,45.60
2022-08-07T09:42:07.852Z,45.43
2022-08-07T09:47:24.705Z,44.68
2022-08-07T09:48:01.453Z,45.10
2022-08-07T09:51:01.130Z,44.93
2022-08-07T09:53:40.877Z,44.64
2022-08-07T09:56:41.941Z,44.24
2022-08-07T10:00:00.903Z,43.94
2022-08-07T10:02:55.619Z,43.45
2022-08-07T10:06:02.659Z,43.36
2022-08-07T10:08:41.921Z,42.57
2022-08-07T10:12:01.167Z,42.45
2022-08-07T10:14:36.222Z,41.78
2022-08-07T10:18:00.785Z,41.84
2022-08-07T10:20:45.301Z,41.41
2022-08-07T10:24:06.185Z,41.77
2022-08-07T10:26:41.757Z,41.46
2022-08-07T10:29:36.931Z,40.92
2022-08-07T10:32:36.491Z,40.78
2022-08-07T10:35:20.344Z,40.90
2022-08-07T10:38:47.910Z,40.81
2022-08-07T10:41:11.678Z,40.54
2022-08-07T10:44:13.038Z,40.52
2022-08-07T10:47:11.574Z,39.39
2022-08-07T10:49:50.947Z,39.67
2022-08-07T10:52:51.232Z,39.77
2022-08-07T10:55:37.230Z,39.95
2022-08-07T10:58:36.565Z,39.24
2022-08-07T11:01:11.716Z,39.58
2022-08-07T11:03:52.520Z,38.80
2022-08-07T11:06:56.162Z,39.10
2022-08-07T11:10:09.100Z,39.19
2022-08-07T11:12:31.966Z,39.08
2022-08-07T11:15:02.561Z,38.66
2022-08-07T11:17:53.962Z,38.57
2022-08-07T11:20:35.423Z,38.55
2022-08-07T11:23:26.460Z,38.43
2022-08-07T11:26:25.317Z,37.83
2022-08-07T11:29:01.493Z,38.09
2022-08-07T11:31:41.629Z,37.90
2022-08-07T11:34:20.685Z,37.47
2022-08-07T11:37:02.236Z,37.52
2022-08-07T11:40:00.221Z,37.41
2022-08-07T11:43:00.900Z,36.61
2022-08-07T11:45:53.168Z,36.84
2022-08-07T11:48:53.957Z,37.04
2022-08-07T11:51:44.958Z,36.93
2022-08-07T11:54:31.464Z,36.60
2022-08-07T11:57:20.601Z,36.33
2022-08-07T12:00:19.722Z,35.86
2022-08-07T12:03:42.160Z,36.17
2022-08-07T12:06:37.211Z,36.01
2022-08-07T12:09:16.716Z,36.15
2022-08-07T12:12:11.649Z,36.12
2022-08-07T12:14:56.146Z,35.50
2022-08-07T12:17:34.215Z,35.49
2022-08-07T12:20:30.812Z,35.34
2022-08-07T12:23:17.924Z,35.86
2022-08-07T12:26:22.685Z,35.42
2022-08-07T12:29:12.651Z,34.77
2022-08-07T12:32:02.090Z,35.15
2022-08-07T12:34:35.930Z,34.98
2022-08-07T12:37:16.260Z,34.85
2022-08-07T12:39:50.591Z,34.43
2022-08-07T12:42:27.815Z,34.41
2022-08-07T12:45:06.635Z,34.51
2022-08-07T12:47:45.610Z,34.27
2022-08-07T12:50:38.088Z,33.66
2022-08-07T12:53:22.523Z,34.03
2022-08-07T12:56:21.377Z,34.34
2022-08-07T12:58:53.236Z,34.61
2022-08-07T13:01:39.772Z,33.57
2022-08-07T13:04:34.223Z,33.83
2022-08-07T13:08:14.512Z,33.15
2022-08-07T13:10:52.264Z,33.48
2022-08-07T13:13:57.488Z,33.92
2022-08-07T13:16:32.415Z,33.50
2022-08-07T13:19:46.279Z,33.18
2022-08-07T13:22:27.675Z,32.99
2022-08-07T13:25:02.517Z,32.96
2022-08-07T13:28:13.809Z,33.05
2022-08-07T13:30:40.038Z,32.88
2022-08-07T13:34:31.125Z,32.70
2022-08-07T13:36:30.422Z,32.36
2022-08-07T13:39:48.936Z,32.29
2022-08-07T13:42:10.211Z,32.91
2022-08-07T13:44:39.586Z,32.44
2022-08-07T13:47:10.590Z,31.94
2022-08-07T13:50:35.669Z,32.40
2022-08-07T13:52:40.822Z,32.29
2022-08-07T13:55:26.288Z,32.73
2022-08-07T13:58:28.103Z,32.11
2022-08-07T14:01:08.749Z,32.43
2022-08-07T14:04:05.103Z,32.14
2022-08-07T14:06:38.600Z,32.10
2022-08-07T14:09:07.237Z,31.75
2022-08-07T14:12:00.125Z,31.80
2022-08-07T14:14:38.832Z,29.96
2022-08-07T14:17:13.064Z,31.45
2022-08-07T14:20:42.030Z,31.50
2022-08-07T14:23:09.941Z,31.42
2022-08-07T14:25:45.908Z,30.83
2022-08-07T14:28:18.155Z,31.11
2022-08-07T14:30:47.916Z,31.59
2022-08-07T14:33:22.411Z,31.16
2022-08-07T14:35:55.830Z,31.31
2022-08-07T14:38:30.221Z,31.44
2022-08-07T14:41:05.351Z,31.30
2022-08-07T14:43:58.901Z,31.37
2022-08-07T14:46:31.974Z,31.57
2022-08-07T14:49:57.512Z,31.08
2022-08-07T14:52:03.842Z,31.17
2022-08-07T14:54:41.688Z,31.05
2022-08-07T14:57:19.129Z,31.56
2022-08-07T15:00:05.383Z,31.93
2022-08-07T15:05:23.460Z,31.71
2022-08-07T15:07:52.504Z,31.14
2022-08-07T15:10:26.804Z,31.84
2022-08-07T15:12:59.749Z,31.57
2022-08-07T15:15:38.763Z,31.43
2022-08-07T15:18:14.516Z,31.50
2022-08-07T15:25:14.122Z,31.38
2022-08-07T15:26:55.410Z,31.12
2022-08-07T15:30:10.334Z,31.15
2022-08-07T15:32:12.816Z,31.37
2022-08-07T15:34:50.461Z,31.69
2022-08-07T15:37:28.783Z,31.60
2022-08-07T15:40:33.806Z,31.35
2022-08-07T15:46:31.473Z,31.45
2022-08-07T15:49:12.413Z,31.56
2022-08-07T15:54:34.609Z,32.33
2022-08-07T15:57:28.050Z,31.86
2022-08-07T16:00:04.490Z,31.91
2022-08-07T16:02:40.982Z,31.93
2022-08-07T16:05:15.362Z,31.80
2022-08-07T16:08:30.478Z,31.80
2022-08-07T16:10:36.829Z,31.58
2022-08-07T16:13:58.064Z,31.92
2022-08-07T16:16:47.809Z,32.04
2022-08-07T16:19:11.649Z,32.34
2022-08-07T16:22:19.234Z,32.22
2022-08-07T16:25:07.645Z,32.35
2022-08-07T16:27:41.652Z,32.24
2022-08-07T16:30:30.479Z,32.06
2022-08-07T16:34:02.579Z,32.15
2022-08-07T16:36:22.136Z,31.87
2022-08-07T16:39:20.840Z,31.90
2022-08-07T16:42:21.715Z,32.27
2022-08-07T16:45:23.345Z,31.54
2022-08-07T16:47:58.120Z,31.75
2022-08-07T16:51:22.652Z,31.50
2022-08-07T16:54:06.370Z,31.33
2022-08-07T16:56:54.141Z,31.31
2022-08-07T16:59:58.128Z,31.49
2022-08-07T17:03:05.860Z,31.61
2022-08-07T17:06:19.818Z,31.43
2022-08-07T17:09:14.416Z,31.17
2022-08-07T17:12:04.457Z,31.32
2022-08-07T17:14:36.444Z,30.92
2022-08-07T17:17:09.927Z,30.88
2022-08-07T17:20:02.179Z,30.78
2022-08-07T17:22:37.983Z,30.74
2022-08-07T17:25:16.118Z,30.66
2022-08-07T17:27:57.061Z,30.98
2022-08-07T17:30:35.176Z,30.59
2022-08-07T17:34:09.733Z,31.25
2022-08-07T17:36:02.886Z,30.80
2022-08-07T17:38:44.728Z,30.97
2022-08-07T17:42:04.378Z,31.12
2022-08-07T17:44:34.094Z,31.29
2022-08-07T17:47:42.326Z,30.97
2022-08-07T17:50:20.661Z,30.90
2022-08-07T17:52:55.485Z,31.55
2022-08-07T17:56:00.546Z,31.37
2022-08-07T17:58:46.437Z,31.71
2022-08-07T18:01:22.609Z,31.72
2022-08-07T18:04:16.337Z,31.50
2022-08-07T18:07:19.580Z,31.48
2022-08-07T18:10:05.340Z,31.40
2022-08-07T18:12:48.027Z,31.58
2022-08-07T18:15:32.724Z,31.29
2022-08-07T18:18:47.449Z,31.48
2022-08-07T18:21:37.383Z,31.32
2022-08-07T18:24:07.253Z,31.63
2022-08-07T18:26:56.649Z,31.46
2022-08-07T18:30:06.593Z,31.42
2022-08-07T18:32:46.139Z,31.87
2022-08-07T18:35:51.550Z,31.69
2022-08-07T18:38:55.182Z,31.58
2022-08-07T18:41:53.073Z,31.65
2022-08-07T18:45:40.273Z,31.95
2022-08-07T18:48:10.026Z,31.54
2022-08-07T18:52:38.913Z,31.75
2022-08-07T18:54:27.633Z,31.75
2022-08-07T18:57:30.653Z,31.99
2022-08-07T19:00:34.380Z,32.38
2022-08-07T19:03:15.808Z,32.49
2022-08-07T19:06:16.591Z,32.50
2022-08-07T19:08:58.929Z,32.44
2022-08-07T19:12:04.963Z,32.73
2022-08-07T19:14:58.285Z,33.01
2022-08-07T19:18:11.427Z,33.02
2022-08-07T19:21:08.999Z,33.19
2022-08-07T19:23:58.451Z,33.53
2022-08-07T19:27:09.295Z,33.35
2022-08-07T19:31:00.066Z,33.50
2022-08-07T19:32:17.415Z,33.97
2022-08-07T19:35:09.543Z,33.98
2022-08-07T19:37:57.133Z,34.07
2022-08-07T19:40:31.810Z,35.00
2022-08-07T19:43:21.658Z,34.90
2022-08-07T19:46:07.413Z,36.41
2022-08-07T19:49:05.049Z,36.74
2022-08-07T19:51:52.212Z,37.21
2022-08-07T19:54:29.982Z,37.02
2022-08-07T19:58:01.163Z,36.84
2022-08-07T19:59:54.386Z,36.98
2022-08-07T20:02:34.954Z,37.62
2022-08-07T20:05:08.929Z,37.60
2022-08-07T20:07:46.479Z,38.59
2022-08-07T20:10:35.919Z,38.33
2022-08-07T20:13:23.015Z,38.29
2022-08-07T20:15:52.212Z,38.69
2022-08-07T20:18:21.996Z,38.28
2022-08-07T20:21:02.843Z,38.92
2022-08-07T20:23:40.861Z,38.60
2022-08-07T20:26:12.949Z,38.73
2022-08-07T20:28:51.766Z,38.87
2022-08-07T20:31:23.235Z,38.79
2022-08-07T20:33:56.380Z,39.39
2022-08-07T20:36:27.187Z,38.94
2022-08-07T20:39:00.843Z,38.54
2022-08-07T20:41:48.575Z,38.36
2022-08-07T20:44:16.201Z,38.58
2022-08-07T20:46:46.098Z,39.29
2022-08-07T20:50:01.087Z,37.61
2022-08-07T20:52:07.849Z,38.84
2022-08-07T20:54:41.708Z,38.73
2022-08-07T20:57:24.814Z,39.02
2022-08-07T21:00:07.167Z,38.55
2022-08-07T21:02:59.155Z,38.49
2022-08-07T21:05:51.199Z,38.32
2022-08-07T21:08:41.073Z,39.51
2022-08-07T21:11:14.459Z,39.98
2022-08-07T21:14:16.164Z,38.44
2022-08-07T21:16:56.171Z,38.25
2022-08-07T21:19:32.447Z,37.67
2022-08-07T21:22:15.175Z,38.82
2022-08-07T21:25:11.745Z,38.63
2022-08-07T21:27:48.708Z,39.35
2022-08-07T21:30:30.041Z,38.63
2022-08-07T21:33:12.104Z,38.73
2022-08-07T21:36:05.766Z,40.19
2022-08-07T21:38:55.487Z,40.39
2022-08-07T21:42:01.474Z,40.45
2022-08-07T21:44:38.460Z,39.79
2022-08-07T21:47:17.297Z,41.42
2022-08-07T21:50:03.225Z,41.06
2022-08-07T21:52:51.889Z,40.21
2022-08-07T21:55:27.852Z,40.34
2022-08-07T21:58:32.237Z,40.30
2022-08-07T22:01:08.460Z,40.66
2022-08-07T22:03:57.512Z,41.52
2022-08-07T22:06:35.718Z,41.69
2022-08-07T22:09:10.343Z,40.86
2022-08-07T22:12:05.254Z,40.64
2022-08-07T22:14:44.029Z,40.26
2022-08-07T22:17:36.264Z,40.62
2022-08-07T22:20:22.704Z,40.45
2022-08-07T22:22:58.957Z,40.52
2022-08-07T22:25:36.948Z,40.96
2022-08-07T22:28:31.792Z,41.46
2022-08-07T22:31:06.681Z,41.24
2022-08-07T22:34:05.041Z,42.94
2022-08-07T22:36:42.310Z,43.55
2022-08-07T22:39:24.981Z,42.94
2022-08-07T22:42:19.098Z,43.29
2022-08-07T22:44:58.306Z,43.34
2022-08-07T22:48:31.456Z,43.89
2022-08-07T22:51:15.922Z,42.91
2022-08-07T22:54:24.438Z,42.75
2022-08-07T22:57:02.209Z,42.86
2022-08-07T22:59:46.948Z,44.13
2022-08-07T23:02:39.241Z,43.25
2022-08-07T23:06:08.459Z,43.58
2022-08-07T23:08:46.083Z,42.33
2022-08-07T23:11:41.255Z,42.21
2022-08-07T23:14:37.409Z,42.73
2022-08-07T23:17:19.936Z,42.80
2022-08-07T23:20:51.245Z,42.65
2022-08-07T23:24:05.568Z,42.59
2022-08-07T23:26:23.403Z,42.88
2022-08-07T23:29:16.560Z,42.89
2022-08-07T23:34:23.251Z,43.12
2022-08-07T23:35:22.071Z,43.29
2022-08-07T23:38:03.951Z,43.37
2022-08-07T23:40:49.403Z,43.38
2022-08-07T23:43:38.842Z,43.08
2022-08-07T23:46:43.106Z,43.52
2022-08-07T23:49:50.498Z,43.72
2022-08-07T23:53:00.015Z,43.68
2022-08-07T23:55:55.381Z,44.59
2022-08-07T23:58:37.153Z,44.65
